createdAt,value
2019-02-22T00:02:33.812Z,99424.13
2019-02-22T00:05:04.067Z,99422.85
2019-02-22T00:07:34.260Z,99421.68
2019-02-22T00:10:05.552Z,99416.40
2019-02-22T00:12:35.657Z,99424.89
2019-02-22T00:15:06.788Z,99429.18
2019-02-22T00:17:36.912Z,99427.16
2019-02-22T00:20:07.566Z,99423.14
2019-02-22T00:22:37.815Z,99423.65
2019-02-22T00:25:09.321Z,99427.34
2019-02-22T00:27:39.486Z,99430.02
2019-02-22T00:30:09.728Z,99426.73
2019-02-22T00:32:42.459Z,99427.45
2019-02-22T00:35:12.178Z,99422.94
2019-02-22T00:37:42.237Z,99425.14
2019-02-22T00:40:12.379Z,99421.09
2019-02-22T00:42:42.467Z,99421.54
2019-02-22T00:45:17.757Z,99424.05
2019-02-22T00:47:50.406Z,99432.98
2019-02-22T00:50:20.489Z,99424.64
2019-02-22T00:52:51.249Z,99432.56
2019-02-22T00:55:24.565Z,99429.86
2019-02-22T00:57:57.101Z,99432.36
2019-02-22T01:00:27.269Z,99431.88
2019-02-22T01:02:57.366Z,99429.95
2019-02-22T01:05:28.866Z,99425.61
2019-02-22T01:07:59.266Z,99428.49
2019-02-22T01:10:31.520Z,99429.45
2019-02-22T01:13:01.295Z,99430.63
2019-02-22T01:15:31.487Z,99426.70
2019-02-22T01:18:01.947Z,99431.69
2019-02-22T01:20:32.124Z,99429.86
2019-02-22T01:23:02.292Z,99433.06
2019-02-22T01:25:32.407Z,99429.66
2019-02-22T01:28:02.764Z,99436.02
2019-02-22T01:30:32.915Z,99432.09
2019-02-22T01:33:03.791Z,99438.84
2019-02-22T01:35:34.022Z,99430.12
2019-02-22T01:38:04.126Z,99418.83
2019-02-22T01:40:43.265Z,99411.56
2019-02-22T01:43:06.115Z,99412.83
2019-02-22T01:45:36.239Z,99415.44
2019-02-22T01:48:06.460Z,99416.04
2019-02-22T01:50:36.560Z,99424.39
2019-02-22T01:53:06.654Z,99433.01
2019-02-22T01:55:37.084Z,99427.59
2019-02-22T01:58:07.206Z,99420.28
2019-02-22T02:00:37.411Z,99430.11
2019-02-22T02:03:07.484Z,99428.97
2019-02-22T02:05:37.936Z,99432.65
2019-02-22T02:08:08.089Z,99432.94
2019-02-22T02:10:38.201Z,99430.03
2019-02-22T02:13:08.371Z,99437.48
2019-02-22T02:15:38.455Z,99441.39
2019-02-22T02:18:08.554Z,99441.27
2019-02-22T02:20:38.990Z,99435.39
2019-02-22T02:23:09.115Z,99447.20
2019-02-22T02:25:39.214Z,99445.49
2019-02-22T02:28:09.371Z,99440.39
2019-02-22T02:30:39.474Z,99446.92
2019-02-22T02:33:09.593Z,99455.58
2019-02-22T02:35:39.985Z,99447.78
2019-02-22T02:38:10.116Z,99447.73
2019-02-22T02:40:41.531Z,99457.39
2019-02-22T02:43:11.648Z,99451.91
2019-02-22T02:45:41.763Z,99450.02
2019-02-22T02:48:11.897Z,99458.04
2019-02-22T02:50:42.307Z,99461.02
2019-02-22T02:53:12.505Z,99456.73
2019-02-22T02:55:42.620Z,99463.16
2019-02-22T02:58:12.746Z,99459.75
2019-02-22T03:00:43.150Z,99463.02
2019-02-22T03:03:13.267Z,99463.14
2019-02-22T03:06:02.709Z,99472.01
2019-02-22T03:08:36.344Z,99468.52
2019-02-22T03:11:06.728Z,99468.01
2019-02-22T03:13:37.116Z,99471.88
2019-02-22T03:16:07.164Z,99473.64
2019-02-22T03:18:37.321Z,99471.44
2019-02-22T03:21:07.414Z,99472.52
2019-02-22T03:23:37.825Z,99474.23
2019-02-22T03:26:07.966Z,99476.31
2019-02-22T03:28:38.055Z,99480.68
2019-02-22T03:31:08.225Z,99488.59
2019-02-22T03:33:38.302Z,99487.17
2019-02-22T03:36:08.452Z,99488.00
2019-02-22T03:38:38.957Z,99490.99
2019-02-22T03:41:09.088Z,99493.20
2019-02-22T03:43:39.280Z,99502.02
2019-02-22T03:46:09.400Z,99497.16
2019-02-22T03:48:39.518Z,99492.28
2019-02-22T03:51:09.633Z,99495.61
2019-02-22T03:53:54.087Z,99487.50
2019-02-22T03:56:24.187Z,99491.74
2019-02-22T03:58:54.299Z,99497.02
2019-02-22T04:01:24.723Z,99503.52
2019-02-22T04:03:54.851Z,99500.12
2019-02-22T04:06:24.977Z,99503.84
2019-02-22T04:08:55.094Z,99505.37
2019-02-22T04:11:25.670Z,99506.22
2019-02-22T04:13:55.864Z,99507.08
2019-02-22T04:16:26.060Z,99514.52
2019-02-22T04:18:56.165Z,99520.52
2019-02-22T04:21:26.654Z,99519.03
2019-02-22T04:23:56.728Z,99511.59
2019-02-22T04:26:26.869Z,99514.54
2019-02-22T04:28:56.984Z,99513.13
2019-02-22T04:31:27.105Z,99521.50
2019-02-22T04:33:57.238Z,99524.33
2019-02-22T04:36:27.699Z,99525.58
2019-02-22T04:38:57.841Z,99530.02
2019-02-22T04:41:28.013Z,99531.78
2019-02-22T04:43:58.266Z,99529.16
2019-02-22T04:46:28.949Z,99536.11
2019-02-22T04:48:59.054Z,99541.86
2019-02-22T04:51:29.222Z,99545.38
2019-02-22T04:53:59.359Z,99545.81
2019-02-22T04:56:29.541Z,99552.11
2019-02-22T04:58:59.640Z,99553.01
2019-02-22T05:01:29.831Z,99556.25
2019-02-22T05:03:59.945Z,99562.28
2019-02-22T05:06:30.370Z,99557.68
2019-02-22T05:09:00.550Z,99557.64
2019-02-22T05:11:33.447Z,99564.02
2019-02-22T05:14:05.092Z,99565.61
2019-02-22T05:16:35.210Z,99563.64
2019-02-22T05:19:05.351Z,99556.98
2019-02-22T05:21:35.552Z,99553.62
2019-02-22T05:24:05.913Z,99552.70
2019-02-22T05:26:36.047Z,99551.30
2019-02-22T05:29:06.141Z,99551.39
2019-02-22T05:31:36.435Z,99561.19
2019-02-22T05:34:06.590Z,99565.27
2019-02-22T05:36:36.730Z,99556.23
2019-02-22T05:39:18.583Z,99562.66
2019-02-22T05:41:39.341Z,99566.99
2019-02-22T05:44:09.449Z,99568.88
2019-02-22T05:46:39.551Z,99576.27
2019-02-22T05:49:09.763Z,99577.64
2019-02-22T05:51:39.890Z,99576.98
2019-02-22T05:54:10.361Z,99589.69
2019-02-22T05:56:40.500Z,99585.77
2019-02-22T05:59:13.515Z,99585.77
2019-02-22T06:01:43.929Z,99588.86
2019-02-22T06:04:17.590Z,99592.33
2019-02-22T06:06:49.800Z,99590.27
2019-02-22T06:09:20.133Z,99594.56
2019-02-22T06:11:50.290Z,99592.87
2019-02-22T06:14:20.942Z,99589.87
2019-02-22T06:16:51.065Z,99584.02
2019-02-22T06:19:21.525Z,99595.03
2019-02-22T06:21:51.851Z,99599.71
2019-02-22T06:24:22.028Z,99602.01
2019-02-22T06:26:52.255Z,99609.45
2019-02-22T06:29:22.590Z,99613.66
2019-02-22T06:31:53.876Z,99627.13
2019-02-22T06:34:24.279Z,99629.67
2019-02-22T06:37:01.638Z,99633.94
2019-02-22T06:39:27.440Z,99637.56
2019-02-22T06:41:57.819Z,99640.88
2019-02-22T06:44:27.993Z,99644.25
2019-02-22T06:47:00.922Z,99644.79
2019-02-22T06:49:44.442Z,99649.41
2019-02-22T06:52:20.920Z,99643.30
2019-02-22T06:54:48.207Z,99647.15
2019-02-22T06:57:18.634Z,99652.69
2019-02-22T06:59:48.935Z,99647.25
2019-02-22T07:02:19.242Z,99658.89
2019-02-22T07:04:49.367Z,99657.14
2019-02-22T07:07:19.590Z,99655.91
2019-02-22T07:09:49.711Z,99656.25
2019-02-22T07:12:56.206Z,99659.56
2019-02-22T07:15:17.958Z,99661.64
2019-02-22T07:17:48.080Z,99658.58
2019-02-22T07:20:18.199Z,99663.09
2019-02-22T07:22:48.356Z,99662.02
2019-02-22T07:25:18.477Z,99663.03
2019-02-22T07:30:27.721Z,99672.75
2019-02-22T07:32:57.974Z,99671.34
2019-02-22T07:35:47.249Z,99671.47
2019-02-22T07:38:17.390Z,99676.28
2019-02-22T07:40:47.556Z,99680.27
2019-02-22T07:43:17.656Z,99679.63
2019-02-22T07:46:06.847Z,99688.61
2019-02-22T07:48:37.141Z,99684.78
2019-02-22T07:51:26.550Z,99682.14
2019-02-22T07:54:15.740Z,99688.61
2019-02-22T07:56:48.704Z,99698.35
2019-02-22T07:59:19.259Z,99700.87
2019-02-22T08:01:49.459Z,99696.60
2019-02-22T08:04:38.686Z,99709.59
2019-02-22T08:07:11.928Z,99706.80
2019-02-22T08:10:01.128Z,99711.31
2019-02-22T08:12:50.555Z,99718.33
2019-02-22T08:15:40.039Z,99712.23
2019-02-22T08:18:10.178Z,99570.55
2019-02-22T08:20:59.467Z,99714.15
2019-02-22T08:23:29.927Z,99704.66
2019-02-22T08:26:19.664Z,99710.33
2019-02-22T08:28:52.881Z,99712.23
2019-02-22T08:31:42.134Z,99715.75
2019-02-22T08:34:12.266Z,99715.97
2019-02-22T08:36:42.393Z,99717.94
2019-02-22T08:39:31.584Z,99719.63
2019-02-22T08:42:01.814Z,99719.05
2019-02-22T08:44:52.272Z,99720.11
2019-02-22T08:47:44.114Z,99726.92
2019-02-22T08:50:14.635Z,99721.03
2019-02-22T08:52:44.803Z,99727.05
2019-02-22T08:55:15.236Z,99737.01
2019-02-22T08:58:04.664Z,99735.94
2019-02-22T09:00:53.836Z,99731.56
2019-02-22T09:03:24.033Z,99731.04
2019-02-22T09:05:54.954Z,99738.85
2019-02-22T09:08:25.520Z,99737.20
2019-02-22T09:11:00.468Z,99741.13
2019-02-22T09:13:27.717Z,99743.48
2019-02-22T09:16:16.881Z,99742.59
2019-02-22T09:19:06.047Z,99599.05
2019-02-22T09:21:47.343Z,99744.59
2019-02-22T09:24:17.834Z,99746.45
2019-02-22T09:26:48.151Z,99746.87
2019-02-22T09:29:18.296Z,99749.70
2019-02-22T09:31:48.408Z,99759.66
2019-02-22T09:34:18.799Z,99756.03
2019-02-22T09:37:07.964Z,99765.27
2019-02-22T09:39:38.570Z,99759.84
2019-02-22T09:42:27.838Z,99760.42
2019-02-22T09:44:57.948Z,99761.26
2019-02-22T09:47:28.059Z,99772.86
2019-02-22T09:50:17.255Z,99763.21
2019-02-22T09:52:48.098Z,99766.52
2019-02-22T09:55:37.335Z,99759.00
2019-02-22T09:58:26.772Z,99766.02
2019-02-22T10:00:56.927Z,99766.60
2019-02-22T10:03:46.396Z,99763.16
2019-02-22T10:06:16.563Z,99774.54
2019-02-22T10:08:47.040Z,99779.00
2019-02-22T10:11:17.239Z,99787.00
2019-02-22T10:13:48.528Z,99781.81
2019-02-22T10:16:37.939Z,99790.67
2019-02-22T10:19:08.177Z,99796.25
2019-02-22T10:21:38.832Z,99792.07
2019-02-22T10:24:28.308Z,99791.02
2019-02-22T10:27:17.490Z,99787.45
2019-02-22T10:29:47.872Z,99795.72
2019-02-22T10:32:37.000Z,99800.64
2019-02-22T10:35:07.413Z,99803.19
2019-02-22T10:37:37.875Z,99798.19
2019-02-22T10:40:08.062Z,99801.56
2019-02-22T10:42:57.529Z,99801.44
2019-02-22T10:45:27.664Z,99815.45
2019-02-22T10:47:57.990Z,99815.08
2019-02-22T10:50:47.426Z,99817.89
2019-02-22T10:53:28.983Z,99813.57
2019-02-22T10:55:59.215Z,99808.26
2019-02-22T10:58:29.353Z,99815.08
2019-02-22T11:00:59.795Z,99803.52
2019-02-22T11:03:49.015Z,99808.57
2019-02-22T11:06:19.146Z,99811.39
2019-02-22T11:08:49.263Z,99806.23
2019-02-22T11:11:38.544Z,99800.84
2019-02-22T11:14:08.837Z,99798.47
2019-02-22T11:16:58.043Z,99798.47
2019-02-22T11:19:28.168Z,99802.61
2019-02-22T11:21:58.398Z,99807.05
2019-02-22T11:24:28.789Z,99808.83
2019-02-22T11:26:59.047Z,99807.98
2019-02-22T11:29:49.452Z,99800.84
2019-02-22T11:32:29.793Z,99794.95
2019-02-22T11:35:19.284Z,99802.81
2019-02-22T11:37:49.435Z,99806.74
2019-02-22T11:40:19.681Z,99798.77
2019-02-22T11:43:08.875Z,99810.61
2019-02-22T11:45:39.026Z,99806.33
2019-02-22T11:48:09.646Z,99805.23
2019-02-22T11:50:40.178Z,99804.97
2019-02-22T11:53:12.692Z,99812.52
2019-02-22T11:55:51.077Z,99813.03
2019-02-22T11:58:21.188Z,99817.73
2019-02-22T12:00:51.436Z,99824.63
2019-02-22T12:03:24.933Z,99814.20
2019-02-22T12:05:54.181Z,99817.28
2019-02-22T12:08:43.313Z,99813.02
2019-02-22T12:11:13.510Z,99819.41
2019-02-22T12:13:43.643Z,99820.92
2019-02-22T12:16:14.056Z,99819.37
2019-02-22T12:18:44.266Z,99828.20
2019-02-22T12:21:14.324Z,99827.93
2019-02-22T12:23:44.473Z,99829.30
2019-02-22T12:26:14.722Z,99831.47
2019-02-22T12:28:44.836Z,99837.49
2019-02-22T12:31:34.002Z,99835.64
2019-02-22T12:34:23.161Z,99846.61
2019-02-22T12:36:53.297Z,99846.00
2019-02-22T12:39:23.823Z,99849.72
2019-02-22T12:42:13.501Z,99850.31
2019-02-22T12:44:43.602Z,99848.16
2019-02-22T12:47:13.979Z,99854.72
2019-02-22T12:49:45.586Z,99847.48
2019-02-22T12:52:15.787Z,99855.10
2019-02-22T12:54:46.126Z,99852.66
2019-02-22T12:57:16.329Z,99859.70
2019-02-22T12:59:46.483Z,99858.63
2019-02-22T13:02:16.874Z,99858.59
2019-02-22T13:04:47.061Z,99861.38
2019-02-22T13:07:17.176Z,99856.29
2019-02-22T13:10:06.558Z,99855.96
2019-02-22T13:12:36.671Z,99855.63
2019-02-22T13:15:14.207Z,99856.95
2019-02-22T13:17:59.010Z,99860.55
2019-02-22T13:20:29.126Z,99857.22
2019-02-22T13:22:59.253Z,99859.90
2019-02-22T13:25:29.829Z,99859.95
2019-02-22T13:27:59.963Z,99858.75
2019-02-22T13:30:49.109Z,99852.45
2019-02-22T13:33:38.256Z,99862.63
2019-02-22T13:36:08.882Z,99857.73
2019-02-22T13:38:39.308Z,99861.77
2019-02-22T13:41:09.462Z,99865.48
2019-02-22T13:43:43.448Z,99865.25
2019-02-22T13:46:13.841Z,99869.70
2019-02-22T13:49:03.100Z,99871.06
2019-02-22T13:51:34.127Z,99871.47
2019-02-22T13:54:05.143Z,99877.00
2019-02-22T13:56:35.445Z,99879.02
2019-02-22T13:59:16.910Z,99880.33
2019-02-22T14:01:47.332Z,99881.06
2019-02-22T14:04:17.456Z,99882.78
2019-02-22T14:06:47.591Z,99888.23
2019-02-22T14:09:36.876Z,99881.59
2019-02-22T14:12:26.291Z,99881.34
2019-02-22T14:15:15.507Z,99889.83
2019-02-22T14:18:04.663Z,99887.81
2019-02-22T14:20:53.846Z,99885.30
2019-02-22T14:23:24.055Z,99884.66
2019-02-22T14:26:13.342Z,99885.97
2019-02-22T14:28:43.444Z,99887.44
2019-02-22T14:31:32.921Z,99890.20
2019-02-22T14:34:03.035Z,99890.97
2019-02-22T14:36:52.682Z,99890.22
2019-02-22T14:39:41.892Z,99896.06
2019-02-22T14:42:31.311Z,99894.29
2019-02-22T14:45:20.749Z,99894.37
2019-02-22T14:47:51.372Z,99903.93
2019-02-22T14:50:40.531Z,99900.88
2019-02-22T14:53:30.003Z,99900.17
2019-02-22T14:56:19.169Z,99900.05
2019-02-22T14:59:00.507Z,99899.23
2019-02-22T15:01:42.157Z,99898.58
2019-02-22T15:04:22.223Z,99907.92
2019-02-22T15:06:52.459Z,99904.41
2019-02-22T15:09:41.944Z,99903.11
2019-02-22T15:12:31.121Z,99898.49
2019-02-22T15:18:16.412Z,99739.45
2019-02-22T15:20:46.561Z,99898.97
2019-02-22T15:23:16.912Z,99900.95
2019-02-22T15:29:03.002Z,99902.14
2019-02-22T15:31:53.546Z,99774.19
2019-02-22T15:34:42.817Z,99782.41
2019-02-22T15:40:41.959Z,99904.81
2019-02-22T15:43:13.136Z,99903.44
2019-02-22T15:46:11.773Z,99904.96
2019-02-22T15:48:55.240Z,99904.88
2019-02-22T15:51:44.532Z,99903.98
2019-02-22T15:54:33.750Z,99901.85
2019-02-22T15:57:04.283Z,99903.05
2019-02-22T15:59:35.793Z,99902.63
2019-02-22T16:02:45.330Z,99897.39
2019-02-22T16:05:22.676Z,99897.80
2019-02-22T16:08:14.030Z,99903.78
2019-02-22T16:10:44.797Z,99901.56
2019-02-22T16:13:16.768Z,99909.64
2019-02-22T16:16:06.916Z,99915.30
2019-02-22T16:21:29.415Z,99909.97
2019-02-22T16:24:01.146Z,99912.97
2019-02-22T16:26:32.005Z,99912.72
2019-02-22T16:29:02.372Z,99913.83
2019-02-22T16:31:32.901Z,99924.66
2019-02-22T16:34:03.370Z,99925.06
2019-02-22T16:36:33.569Z,99917.47
2019-02-22T16:39:06.123Z,99916.85
2019-02-22T16:41:36.483Z,99908.84
2019-02-22T16:44:07.185Z,99915.23
2019-02-22T16:46:37.592Z,99918.28
2019-02-22T16:49:26.790Z,99923.88
2019-02-22T16:52:06.297Z,99924.89
2019-02-22T16:54:55.551Z,99932.00
2019-02-22T16:57:44.956Z,99930.76
2019-02-22T17:03:15.521Z,99940.23
2019-02-22T17:05:53.948Z,99936.92
2019-02-22T17:09:08.133Z,99941.27
2019-02-22T17:11:39.399Z,99941.48
2019-02-22T17:16:55.054Z,99935.07
2019-02-22T17:19:25.377Z,99933.99
2019-02-22T17:21:55.920Z,99940.30
2019-02-22T17:24:27.504Z,99938.90
2019-02-22T17:27:01.362Z,99942.38
2019-02-22T17:29:32.844Z,99947.83
2019-02-22T17:32:03.156Z,99949.13
2019-02-22T17:34:33.409Z,99953.91
2019-02-22T17:37:04.653Z,99952.94
2019-02-22T17:39:34.826Z,99961.53
2019-02-22T17:42:05.049Z,99961.92
2019-02-22T17:44:35.360Z,99952.94
2019-02-22T17:47:24.884Z,99956.31
2019-02-22T17:52:44.460Z,99952.83
2019-02-22T17:57:52.374Z,99964.33
2019-02-22T18:00:23.428Z,99963.16
2019-02-22T18:02:53.693Z,99963.44
2019-02-22T18:05:24.427Z,99955.39
2019-02-22T18:08:13.656Z,99957.31
2019-02-22T18:10:45.367Z,99963.91
2019-02-22T18:13:16.178Z,99966.39
2019-02-22T18:15:46.746Z,99970.44
2019-02-22T18:18:17.038Z,99976.41
2019-02-22T18:20:49.530Z,99977.48
2019-02-22T18:23:39.064Z,99974.30
2019-02-22T18:26:28.454Z,99975.41
2019-02-22T18:28:58.923Z,99978.44
2019-02-22T18:31:30.738Z,99978.56
2019-02-22T18:34:21.246Z,99981.56
2019-02-22T18:36:53.939Z,99974.61
2019-02-22T18:42:23.232Z,99982.66
2019-02-22T18:44:53.789Z,99983.58
2019-02-22T18:47:24.258Z,99987.36
2019-02-22T18:50:14.058Z,99863.47
2019-02-22T18:52:44.708Z,99991.05
2019-02-22T18:58:25.050Z,99995.70
2019-02-22T19:00:55.553Z,99996.64
2019-02-22T19:03:28.158Z,99988.61
2019-02-22T19:06:17.304Z,99982.58
2019-02-22T19:08:47.615Z,99987.89
2019-02-22T19:11:36.975Z,99982.27
2019-02-22T19:16:39.618Z,99998.02
2019-02-22T19:19:09.740Z,99990.16
2019-02-22T19:21:59.318Z,99995.13
2019-02-22T19:24:29.570Z,99989.64
2019-02-22T19:26:59.939Z,99991.16
2019-02-22T19:29:51.849Z,99987.27
2019-02-22T19:32:22.415Z,99993.42
2019-02-22T19:35:11.624Z,99995.27
2019-02-22T19:37:41.854Z,99996.21
2019-02-22T19:40:14.205Z,99996.73
2019-02-22T19:42:56.145Z,100001.59
2019-02-22T19:45:26.845Z,99995.95
2019-02-22T19:48:17.656Z,100000.28
2019-02-22T19:50:50.132Z,99999.03
2019-02-22T19:53:59.550Z,99998.67
2019-02-22T19:56:29.927Z,99998.67
2019-02-22T19:59:20.444Z,100008.44
2019-02-22T20:02:12.460Z,100008.44
2019-02-22T20:05:02.859Z,100015.36
2019-02-22T20:07:54.476Z,100011.47
2019-02-22T20:10:27.673Z,100018.04
2019-02-22T20:13:19.734Z,100024.13
2019-02-22T20:16:28.268Z,100025.97
2019-02-22T20:19:36.943Z,100026.44
2019-02-22T20:22:27.773Z,100024.38
2019-02-22T20:25:17.844Z,100021.48
2019-02-22T20:27:48.498Z,100023.71
2019-02-22T20:30:22.493Z,100024.14
2019-02-22T20:36:08.737Z,100020.75
2019-02-22T20:39:02.940Z,99897.08
2019-02-22T20:41:52.709Z,100024.23
2019-02-22T20:47:33.502Z,100028.00
2019-02-22T20:52:44.310Z,100037.64
2019-02-22T20:55:34.459Z,100037.28
2019-02-22T20:58:23.730Z,99909.75
2019-02-22T21:04:41.559Z,100052.61
2019-02-22T21:07:13.422Z,100053.21
2019-02-22T21:10:02.875Z,100062.31
2019-02-22T21:12:33.987Z,100065.41
2019-02-22T21:15:23.570Z,100057.67
2019-02-22T21:17:54.174Z,99907.58
2019-02-22T21:20:43.370Z,100071.98
2019-02-22T21:23:13.661Z,100065.06
2019-02-22T21:28:25.083Z,100065.41
2019-02-22T21:30:55.505Z,100073.64
2019-02-22T21:34:15.532Z,100076.33
2019-02-22T21:36:36.513Z,100083.66
2019-02-22T21:39:07.247Z,100082.39
2019-02-22T21:41:56.898Z,100087.21
2019-02-22T21:44:27.084Z,100088.98
2019-02-22T21:47:16.383Z,100092.39
2019-02-22T21:49:46.803Z,100088.55
2019-02-22T21:52:36.241Z,100092.50
2019-02-22T21:55:25.490Z,100094.23
2019-02-22T21:58:35.053Z,100090.80
2019-02-22T22:01:24.276Z,100085.67
2019-02-22T22:03:54.503Z,100080.03
2019-02-22T22:06:43.959Z,100080.03
2019-02-22T22:09:33.485Z,100080.92
2019-02-22T22:12:03.704Z,100078.79
2019-02-22T22:14:53.014Z,100077.03
2019-02-22T22:17:23.471Z,100080.87
2019-02-22T22:20:12.865Z,100074.79
2019-02-22T22:23:02.331Z,100070.92
2019-02-22T22:26:10.501Z,100071.39
2019-02-22T22:29:00.081Z,100079.14
2019-02-22T22:31:50.105Z,100068.34
2019-02-22T22:34:39.702Z,100066.66
2019-02-22T22:37:28.823Z,100065.80
2019-02-22T22:40:18.266Z,100071.88
2019-02-22T22:43:07.575Z,100077.51
2019-02-22T22:45:37.952Z,100080.55
2019-02-22T22:48:08.443Z,100067.20
2019-02-22T22:50:57.677Z,100079.73
2019-02-22T22:53:27.951Z,100078.46
2019-02-22T22:56:17.144Z,100076.32
2019-02-22T22:59:06.638Z,100077.64
2019-02-22T23:01:37.189Z,100091.84
2019-02-22T23:04:07.746Z,100087.14
2019-02-22T23:09:30.676Z,100093.53
2019-02-22T23:12:01.057Z,100097.02
2019-02-22T23:14:51.564Z,100096.17
2019-02-22T23:17:41.085Z,100095.75
2019-02-22T23:20:30.555Z,100094.02
2019-02-22T23:23:20.045Z,100088.88
2019-02-22T23:25:50.256Z,100030.34
2019-02-22T23:28:39.872Z,100084.17
2019-02-22T23:31:29.059Z,100087.16
2019-02-22T23:33:59.195Z,100085.88
2019-02-22T23:36:48.628Z,100082.00
2019-02-22T23:39:19.161Z,100088.44
2019-02-22T23:42:08.390Z,100083.71
2019-02-22T23:44:57.710Z,100085.40
2019-02-22T23:47:47.266Z,100046.67
2019-02-22T23:50:36.893Z,99937.78
2019-02-22T23:53:26.381Z,100103.12
2019-02-22T23:56:15.828Z,100103.58
2019-02-22T23:59:05.001Z,100106.59
